Time;durP1;ratioP1;P1;durP2;ratioP2;P2;SDS_P1;SDS_P2;PMS_P1;PMS_P2;Temp;Humidity;BMP_temperature;BMP_pressure;BME280_temperature;BME280_humidity;BME280_pressure;Samples;Min_cycle;Max_cycle;Signal;HPM_P1;HPM_P2
2022/04/07 00:02:24;;;;;;;10.48;3.58;;;;;;;;;;5095969;28;20177;-85
2022/04/07 00:05:08;;;;;;;6.50;2.97;;;9.10;99.90;;;;;;5094953;28;20117;-86
2022/04/07 00:07:53;;;;;;;8.90;3.33;;;;;;;;;;5095057;28;20051;-86
2022/04/07 00:10:38;;;;;;;10.20;3.25;;;;;;;;;;5095357;28;20101;-85
2022/04/07 00:13:22;;;;;;;7.90;2.85;;;;;;;;;;5095864;28;20217;-85
2022/04/07 00:16:07;;;;;;;9.80;3.53;;;;;;;;;;5094668;28;20078;-86
2022/04/07 00:18:52;;;;;;;6.03;3.20;;;;;;;;;;5094893;28;20082;-85
2022/04/07 00:21:38;;;;;;;7.20;2.75;;;;;;;;;;5094918;28;20039;-85
2022/04/07 00:24:23;;;;;;;10.05;3.03;;;;;;;;;;5080669;28;20575;-85
2022/04/07 00:27:07;;;;;;;9.32;3.03;;;;;;;;;;5095564;28;20051;-88
2022/04/07 00:29:52;;;;;;;8.30;3.08;;;;;;;;;;5080629;28;20098;-87
2022/04/07 00:32:41;;;;;;;10.20;3.25;;;8.90;99.90;;;;;;5080451;28;20127;-85
2022/04/07 00:35:26;;;;;;;8.55;3.45;;;;;;;;;;5095413;28;20069;-84
2022/04/07 00:38:11;;;;;;;7.95;3.58;;;;;;;;;;5094174;28;20127;-84
2022/04/07 00:40:56;;;;;;;8.48;3.80;;;;;;;;;;5094103;28;20042;-85
2022/04/07 00:43:40;;;;;;;10.32;3.53;;;;;;;;;;5094466;28;20042;-84
2022/04/07 00:46:24;;;;;;;8.25;4.15;;;;;;;;;;5079868;28;20038;-84
2022/04/07 00:49:10;;;;;;;10.23;4.68;;;8.80;99.90;;;;;;5079708;28;20067;-89
2022/04/07 00:51:55;;;;;;;10.18;3.58;;;;;;;;;;5094459;28;20142;-86
2022/04/07 00:54:40;;;;;;;7.15;3.70;;;;;;;;;;5094291;28;20035;-85
2022/04/07 00:57:24;;;;;;;12.45;2.97;;;;;;;;;;5079787;28;20491;-87
2022/04/07 01:00:11;;;;;;;6.13;2.25;;;8.80;99.90;;;;;;5093573;28;20130;-89
2022/04/07 01:02:55;;;;;;;7.68;2.65;;;;;;;;;;5094195;28;20039;-86
2022/04/07 01:05:40;;;;;;;6.47;1.95;;;;;;;;;;5095091;28;20039;-86
2022/04/07 01:08:24;;;;;;;5.00;1.98;;;;;;;;;;5079571;28;20119;-87
2022/04/07 01:11:09;;;;;;;6.68;1.88;;;;;;;;;;5093871;28;20098;-89
2022/04/07 01:13:53;;;;;;;7.65;2.17;;;;;;;;;;5093859;28;20479;-85
2022/04/07 01:16:38;;;;;;;4.82;2.10;;;;;;;;;;5093890;28;20445;-86
2022/04/07 01:19:23;;;;;;;8.50;2.35;;;;;;;;;;5093419;28;20047;-86
2022/04/07 01:22:07;;;;;;;8.00;2.33;;;;;;;;;;5093687;28;20488;-85
2022/04/07 01:24:52;;;;;;;8.18;2.72;;;;;;;;;;5093725;28;20127;-85
2022/04/07 01:27:37;;;;;;;5.95;2.97;;;;;;;;;;5079410;28;20051;-85
2022/04/07 01:30:22;;;;;;;11.07;3.58;;;;;;;;;;5093290;28;20120;-86
2022/04/07 01:33:07;;;;;;;8.23;3.30;;;;;;;;;;5093404;28;20609;-85
2022/04/07 01:35:52;;;;;;;8.35;3.60;;;8.80;99.90;;;;;;5079316;28;20035;-85
2022/04/07 01:38:37;;;;;;;11.63;3.80;;;;;;;;;;5078854;28;20093;-85
2022/04/07 01:41:22;;;;;;;11.18;4.45;;;;;;;;;;5092993;28;20043;-86
2022/04/07 01:44:07;;;;;;;10.20;4.43;;;8.80;99.90;;;;;;5093222;28;20035;-86
2022/04/07 01:46:52;;;;;;;12.85;4.95;;;;;;;;;;5079076;28;20089;-85
2022/04/07 01:49:40;;;;;;;12.63;5.35;;;8.80;99.90;;;;;;5078827;28;20545;-85
2022/04/07 01:52:25;;;;;;;9.88;4.85;;;;;;;;;;5093864;28;20031;-84
2022/04/07 01:55:09;;;;;;;12.13;4.72;;;;;;;;;;5093163;28;20038;-85
2022/04/07 01:57:54;;;;;;;9.90;4.50;;;;;;;;;;5078573;28;20063;-85
2022/04/07 02:00:40;;;;;;;10.05;3.78;;;8.90;99.90;;;;;;5092689;28;20126;-86
2022/04/07 02:03:25;;;;;;;12.98;4.72;;;;;;;;;;5092842;28;20043;-85
2022/04/07 02:06:15;;;;;;;12.23;4.75;;;9.10;99.90;;;;;;5078947;28;20106;-85
2022/04/07 02:09:02;;;;;;;11.32;3.97;;;;;;;;;;5092967;28;20365;-85
2022/04/07 02:11:47;;;;;;;12.88;3.95;;;;;;;;;;5079155;28;20127;-86
2022/04/07 02:14:33;;;;;;;15.77;4.40;;;;;;;;;;5092574;28;20388;-85
2022/04/07 02:17:22;;;;;;;16.00;3.63;;;;;;;;;;5092829;28;20054;-88
2022/04/07 02:20:08;;;;;;;10.98;4.15;;;8.90;99.90;;;;;;5092867;28;20107;-86
2022/04/07 02:22:53;;;;;;;14.23;4.35;;;;;;;;;;5078325;28;20043;-87
2022/04/07 02:25:37;;;;;;;17.40;4.80;;;;;;;;;;5092129;28;20051;-85
2022/04/07 02:28:22;;;;;;;13.23;4.70;;;;;;;;;;5078145;28;20130;-89
2022/04/07 02:31:07;;;;;;;11.40;3.90;;;;;;;;;;5092459;28;20047;-86
2022/04/07 02:33:52;;;;;;;13.45;3.70;;;;;;;;;;5092210;28;20396;-85
2022/04/07 02:36:36;;;;;;;13.20;4.13;;;;;;;;;;5077878;28;20042;-85
2022/04/07 02:39:21;;;;;;;9.30;3.72;;;;;;;;;;5092260;28;20043;-87
2022/04/07 02:42:06;;;;;;;9.73;3.78;;;;;;;;;;5078140;28;20062;-85
2022/04/07 02:44:50;;;;;;;14.88;4.15;;;;;;;;;;5092344;28;20038;-86
2022/04/07 02:47:38;;;;;;;13.75;4.63;;;8.80;99.90;;;;;;5091876;28;20039;-85
2022/04/07 02:50:23;;;;;;;12.68;4.72;;;;;;;;;;5091953;28;20447;-88
2022/04/07 02:53:07;;;;;;;15.90;4.80;;;;;;;;;;5077810;28;20062;-85
2022/04/07 02:55:52;;;;;;;17.80;4.40;;;;;;;;;;5092273;28;20039;-85
2022/04/07 02:58:36;;;;;;;15.57;4.20;;;;;;;;;;5077307;28;20063;-86
2022/04/07 03:01:21;;;;;;;16.92;4.43;;;;;;;;;;5093150;28;20141;-86
2022/04/07 03:04:06;;;;;;;13.40;4.47;;;;;;;;;;5091872;28;20116;-85
2022/04/07 03:06:54;;;;;;;13.23;4.28;;;8.80;99.90;;;;;;5077677;28;20078;-85
2022/04/07 03:09:39;;;;;;;17.05;4.55;;;;;;;;;;5077448;28;20109;-85
2022/04/07 03:12:24;;;;;;;14.15;3.80;;;;;;;;;;5077894;28;20089;-88
2022/04/07 03:15:09;;;;;;;16.67;3.78;;;8.80;99.90;;;;;;5077681;28;20043;-85
2022/04/07 03:17:54;;;;;;;16.92;4.43;;;;;;;;;;5077449;28;20051;-86
2022/04/07 03:20:38;;;;;;;17.63;4.47;;;;;;;;;;5077303;28;20055;-86
2022/04/07 03:23:23;;;;;;;17.15;4.50;;;;;;;;;;5077858;28;20461;-86
2022/04/07 03:26:08;;;;;;;19.83;5.13;;;;;;;;;;5091927;28;20097;-84
2022/04/07 03:28:52;;;;;;;14.50;3.88;;;;;;;;;;5077461;28;20047;-86
2022/04/07 03:31:37;;;;;;;15.18;5.05;;;;;;;;;;5077142;28;20449;-85
2022/04/07 03:34:21;;;;;;;17.55;3.75;;;;;;;;;;5091758;28;20075;-85
2022/04/07 03:37:06;;;;;;;13.55;3.60;;;8.60;99.90;;;;;;5077702;28;20042;-85
2022/04/07 03:39:50;;;;;;;15.57;3.83;;;;;;;;;;5092324;28;20043;-85
2022/04/07 03:42:35;;;;;;;9.80;3.03;;;;;;;;;;5091339;28;20038;-85
2022/04/07 03:45:20;;;;;;;14.35;3.70;;;;;;;;;;5092690;28;20051;-85
2022/04/07 03:48:05;;;;;;;14.02;3.03;;;;;;;;;;5091764;28;20050;-86
2022/04/07 03:50:49;;;;;;;13.35;2.97;;;;;;;;;;5092104;28;20199;-85
2022/04/07 03:53:34;;;;;;;11.25;3.40;;;;;;;;;;5091026;28;20499;-84
2022/04/07 03:56:18;;;;;;;9.88;3.00;;;;;;;;;;5077273;28;20043;-85
2022/04/07 03:59:03;;;;;;;14.57;3.35;;;;;;;;;;5091022;28;20069;-85
2022/04/07 04:01:48;;;;;;;14.02;3.15;;;;;;;;;;5090930;28;20487;-85
2022/04/07 04:04:33;;;;;;;11.50;2.90;;;8.70;99.90;;;;;;5091209;28;20125;-88
2022/04/07 04:07:18;;;;;;;14.52;4.18;;;;;;;;;;5091378;28;20557;-85
2022/04/07 04:10:03;;;;;;;14.70;4.22;;;;;;;;;;5077132;28;20039;-85
2022/04/07 04:12:47;;;;;;;16.58;3.72;;;;;;;;;;5090754;28;20080;-85
2022/04/07 04:15:32;;;;;;;19.77;3.97;;;;;;;;;;5092258;28;20044;-86
2022/04/07 04:18:16;;;;;;;16.95;3.78;;;;;;;;;;5094268;28;20043;-83
2022/04/07 04:21:01;;;;;;;20.63;4.78;;;;;;;;;;5094894;28;20442;-84
2022/04/07 04:23:45;;;;;;;15.55;4.57;;;;;;;;;;5080096;28;20077;-84
2022/04/07 04:26:30;;;;;;;13.52;4.05;;;;;;;;;;5080407;28;20557;-84
2022/04/07 04:29:14;;;;;;;15.95;4.55;;;;;;;;;;5094654;28;20043;-84
2022/04/07 04:31:58;;;;;;;22.55;4.95;;;;;;;;;;5094261;28;20039;-84
2022/04/07 04:34:43;;;;;;;24.27;4.53;;;;;;;;;;5094219;28;20119;-84
2022/04/07 04:37:28;;;;;;;20.92;3.75;;;;;;;;;;5094434;28;20469;-85
2022/04/07 04:40:12;;;;;;;26.15;5.05;;;;;;;;;;5094292;28;20054;-85
2022/04/07 04:42:58;;;;;;;20.48;5.25;;;;;;;;;;5095000;28;20085;-84
2022/04/07 04:45:43;;;;;;;19.83;5.10;;;;;;;;;;5080033;28;20082;-84
2022/04/07 04:48:27;;;;;;;22.23;5.10;;;;;;;;;;5094289;28;20047;-85
2022/04/07 04:51:12;;;;;;;19.83;5.07;;;;;;;;;;5094433;28;20065;-88
2022/04/07 04:53:56;;;;;;;23.25;7.40;;;;;;;;;;5094743;28;20096;-85
2022/04/07 04:56:41;;;;;;;17.48;3.95;;;8.50;99.90;;;;;;5079474;28;20081;-86
2022/04/07 04:59:26;;;;;;;12.07;2.58;;;;;;;;;;5079631;28;20105;-84
2022/04/07 05:02:10;;;;;;;10.20;2.78;;;;;;;;;;5093040;28;20096;-84
2022/04/07 05:04:54;;;;;;;15.32;4.47;;;;;;;;;;5094193;28;20035;-83
2022/04/07 05:07:39;;;;;;;19.40;4.75;;;;;;;;;;5093911;28;20079;-86
2022/04/07 05:10:25;;;;;;;22.52;5.05;;;;;;;;;;5093886;28;20101;-84
2022/04/07 05:13:10;;;;;;;26.50;6.22;;;;;;;;;;5093904;28;20491;-83
2022/04/07 05:15:55;;;;;;;17.50;4.90;;;;;;;;;;5093266;28;20055;-83
2022/04/07 05:18:39;;;;;;;15.05;3.22;;;;;;;;;;5094564;28;20503;-84
2022/04/07 05:21:24;;;;;;;22.58;5.07;;;;;;;;;;5079362;28;20050;-83
2022/04/07 05:24:08;;;;;;;14.88;3.05;;;;;;;;;;5079225;28;20172;-83
2022/04/07 05:26:53;;;;;;;12.85;2.83;;;;;;;;;;5092966;28;20059;-83
2022/04/07 05:29:37;;;;;;;11.10;2.85;;;;;;;;;;5093319;28;20565;-83
2022/04/07 05:32:22;;;;;;;17.80;4.55;;;;;;;;;;5093499;28;20046;-82
2022/04/07 05:35:06;;;;;;;17.63;3.17;;;7.40;99.90;;;;;;5078734;28;20120;-83
2022/04/07 05:37:59;;;;;;;13.18;3.30;;;7.90;99.90;;;;;;5078567;28;20043;-83
2022/04/07 05:40:44;;;;;;;24.52;4.28;;;;;;;;;;5094253;28;20082;-88
2022/04/07 05:43:29;;;;;;;6.03;1.30;;;;;;;;;;5093243;28;20035;-85
2022/04/07 05:46:13;;;;;;;3.42;1.00;;;;;;;;;;5094191;28;20085;-84
2022/04/07 05:48:57;;;;;;;6.45;1.40;;;;;;;;;;5092529;28;20131;-85
2022/04/07 05:51:42;;;;;;;4.85;1.50;;;;;;;;;;5094209;28;20082;-86
2022/04/07 05:54:26;;;;;;;8.90;1.42;;;;;;;;;;5094002;28;20054;-86
2022/04/07 05:57:11;;;;;;;10.00;1.75;;;;;;;;;;5093013;28;20495;-85
2022/04/07 06:00:05;;;;;;;10.07;1.60;;;4.60;99.90;;;;;;5093886;28;20106;-85
2022/04/07 06:02:50;;;;;;;13.85;2.85;;;;;;;;;;5092598;28;20117;-85
2022/04/07 06:05:35;;;;;;;9.73;1.90;;;;;;;;;;5078747;28;20051;-85
2022/04/07 06:08:20;;;;;;;9.75;1.60;;;;;;;;;;5093109;28;20499;-86
2022/04/07 06:11:05;;;;;;;13.07;2.20;;;;;;;;;;5093372;28;20038;-85
2022/04/07 06:13:49;;;;;;;7.63;2.05;;;;;;;;;;5093495;28;20075;-89
2022/04/07 06:16:34;;;;;;;10.90;2.25;;;;;;;;;;5092684;28;20082;-85
2022/04/07 06:19:18;;;;;;;9.95;2.10;;;;;;;;;;5092760;28;20067;-86
2022/04/07 06:22:05;;;;;;;14.50;2.78;;;;;;;;;;5092265;28;20042;-86
2022/04/07 06:24:49;;;;;;;10.38;1.95;;;;;;;;;;5092496;28;20039;-88
2022/04/07 06:27:42;;;;;;;6.47;1.92;;;4.60;99.90;;;;;;5092346;28;20102;-86
2022/04/07 06:30:26;;;;;;;6.53;1.70;;;;;;;;;;5092588;28;20487;-86
2022/04/07 06:33:11;;;;;;;5.63;1.70;;;;;;;;;;5093164;28;20062;-86
2022/04/07 06:35:56;;;;;;;4.88;1.67;;;;;;;;;;5077955;28;20106;-87
2022/04/07 06:38:40;;;;;;;3.80;1.23;;;;;;;;;;5078102;28;20047;-86
2022/04/07 06:41:25;;;;;;;5.50;1.20;;;;;;;;;;5091952;28;20106;-85
2022/04/07 06:44:09;;;;;;;5.38;1.30;;;;;;;;;;5092029;28;20161;-90
2022/04/07 06:46:54;;;;;;;4.85;1.20;;;;;;;;;;5091981;28;20043;-90
2022/04/07 06:49:39;;;;;;;5.18;1.20;;;;;;;;;;5078299;28;20046;-86
2022/04/07 06:52:24;;;;;;;3.90;1.10;;;;;;;;;;5093441;28;20078;-85
2022/04/07 06:55:20;;;;;;;4.85;1.10;;;5.00;99.90;;;;;;5093109;28;20115;-90
2022/04/07 06:58:06;;;;;;;6.15;1.20;;;5.00;99.90;;;;;;5091834;28;20050;-87
2022/04/07 07:00:51;;;;;;;5.30;1.20;;;;;;;;;;5078082;28;20123;-86
2022/04/07 07:03:37;;;;;;;3.70;0.90;;;;;;;;;;5091947;28;20080;-85
2022/04/07 07:06:21;;;;;;;2.22;0.90;;;;;;;;;;5091831;28;20123;-85
2022/04/07 07:09:10;;;;;;;5.35;1.30;;;5.30;99.90;;;;;;5077227;28;20074;-85
2022/04/07 07:11:54;;;;;;;3.00;1.25;;;;;;;;;;5077756;28;20174;-85
2022/04/07 07:14:39;;;;;;;5.55;0.90;;;;;;;;;;5091724;28;20043;-86
2022/04/07 07:17:23;;;;;;;2.05;0.77;;;;;;;;;;5091843;28;20488;-85
2022/04/07 07:20:12;;;;;;;1.48;0.90;;;5.50;99.90;;;;;;5077172;28;20093;-85
2022/04/07 07:22:56;;;;;;;5.45;1.95;;;;;;;;;;5092680;28;20097;-88
2022/04/07 07:25:41;;;;;;;3.95;1.00;;;;;;;;;;5077582;28;20043;-86
2022/04/07 07:28:26;;;;;;;4.18;1.10;;;;;;;;;;5091937;28;20069;-86
2022/04/07 07:31:11;;;;;;;6.35;1.30;;;;;;;;;;5091447;28;20050;-86
2022/04/07 07:33:55;;;;;;;2.80;0.95;;;;;;;;;;5092922;28;20051;-86
2022/04/07 07:36:40;;;;;;;4.43;1.10;;;;;;;;;;5077631;28;20431;-86
2022/04/07 07:39:24;;;;;;;3.33;0.90;;;;;;;;;;5091294;28;20127;-85
2022/04/07 07:42:09;;;;;;;3.72;1.20;;;;;;;;;;5091116;28;20051;-86
2022/04/07 07:44:53;;;;;;;2.72;0.90;;;;;;;;;;5077303;28;20399;-84
2022/04/07 07:47:38;;;;;;;3.95;1.02;;;;;;;;;;5091322;28;20059;-86
2022/04/07 07:50:22;;;;;;;2.83;0.98;;;;;;;;;;5076931;28;20499;-84
2022/04/07 07:53:07;;;;;;;5.80;2.00;;;;;;;;;;5094748;28;20054;-85
2022/04/07 07:55:53;;;;;;;2.17;1.02;;;;;;;;;;5094593;28;20039;-84
2022/04/07 07:58:38;;;;;;;6.32;1.88;;;;;;;;;;5094354;28;20059;-84
2022/04/07 08:01:22;;;;;;;5.82;0.95;;;;;;;;;;5079326;28;20105;-84
2022/04/07 08:04:07;;;;;;;4.07;0.80;;;;;;;;;;5093819;28;20535;-84
2022/04/07 08:06:52;;;;;;;5.20;1.00;;;;;;;;;;5080163;28;20046;-84
2022/04/07 08:09:37;;;;;;;4.95;1.10;;;;;;;;;;5080462;28;20047;-84
2022/04/07 08:12:22;;;;;;;5.78;1.20;;;;;;;;;;5080072;28;20681;-85
2022/04/07 08:15:07;;;;;;;12.05;1.33;;;;;;;;;;5095278;28;20119;-86
2022/04/07 08:17:52;;;;;;;3.50;1.13;;;;;;;;;;5095179;28;20097;-85
2022/04/07 08:20:37;;;;;;;4.18;1.00;;;;;;;;;;5094889;28;20120;-84
2022/04/07 08:23:22;;;;;;;6.28;1.20;;;;;;;;;;5080483;28;20438;-85
2022/04/07 08:26:06;;;;;;;6.78;1.67;;;;;;;;;;5080442;28;20400;-89
2022/04/07 08:28:51;;;;;;;3.22;1.20;;;;;;;;;;5095852;28;20125;-84
2022/04/07 08:31:35;;;;;;;2.20;1.10;;;;;;;;;;5080362;28;20507;-84
2022/04/07 08:34:20;;;;;;;3.85;1.25;;;;;;;;;;5094183;28;20504;-84
2022/04/07 08:37:05;;;;;;;8.13;2.00;;;;;;;;;;5094930;28;20544;-83
2022/04/07 08:39:50;;;;;;;4.22;1.10;;;6.90;99.90;;;;;;5096204;28;20396;-84
2022/04/07 08:42:36;;;;;;;4.72;1.23;;;;;;;;;;5094858;28;20034;-85
2022/04/07 08:45:20;;;;;;;4.60;1.38;;;;;;;;;;5094489;28;20050;-85
2022/04/07 08:48:09;;;;;;;5.25;1.10;;;7.50;99.90;;;;;;5094997;28;20085;-88
2022/04/07 08:50:55;;;;;;;3.72;1.20;;;7.80;99.90;;;;;;5096109;28;20149;-89
2022/04/07 08:53:40;;;;;;;6.45;1.38;;;;;;;;;;5095133;28;20427;-89
2022/04/07 08:56:25;;;;;;;5.90;1.42;;;;;;;;;;5094859;28;20032;-88
2022/04/07 08:59:09;;;;;;;10.63;1.98;;;;;;;;;;5080118;28;20067;-92
2022/04/07 09:02:05;;;;;;;5.35;1.33;;;8.80;99.90;;;;;;5094901;28;20205;-88
2022/04/07 09:04:58;;;;;;;4.40;1.45;;;8.70;99.90;;;;;;5095594;28;20089;-88
2022/04/07 09:07:46;;;;;;;2.35;0.90;;;8.70;99.90;;;;;;5094354;28;20537;-84
2022/04/07 09:10:30;;;;;;;4.80;1.38;;;;;;;;;;5093744;28;20042;-86
2022/04/07 09:13:17;;;;;;;6.88;1.23;;;8.90;99.90;;;;;;5078345;28;20039;-89
2022/04/07 09:16:13;;;;;;;7.57;1.55;;;8.90;99.90;;;;;;5094886;28;20529;-87
2022/04/07 09:19:00;;;;;;;7.68;1.20;;;9.00;99.90;;;;;;5094839;28;20039;-87
2022/04/07 09:21:44;;;;;;;5.75;1.27;;;;;;;;;;5093966;28;20040;-87
2022/04/07 09:24:29;;;;;;;6.57;1.40;;;;;;;;;;5094671;28;20082;-86
2022/04/07 09:27:13;;;;;;;7.35;1.30;;;;;;;;;;5093677;28;20110;-89
2022/04/07 09:29:58;;;;;;;6.93;1.45;;;;;;;;;;5093661;28;20089;-87
2022/04/07 09:32:43;;;;;;;8.38;1.60;;;9.60;99.90;;;;;;5079538;28;20110;-85
2022/04/07 09:35:28;;;;;;;9.45;2.05;;;;;;;;;;5094328;28;20088;-86
2022/04/07 09:38:13;;;;;;;7.85;1.98;;;;;;;;;;5079418;28;20051;-93
2022/04/07 09:41:07;;;;;;;6.05;1.50;;;9.90;99.90;;;;;;5093254;28;20491;-86
2022/04/07 09:43:53;;;;;;;;;;;9.70;99.90;;;;;;5093850;28;20070;-87
2022/04/07 09:46:38;;;;;;;8.38;1.92;;;;;;;;;;5093081;28;19934;-86
2022/04/07 09:49:23;;;;;;;11.73;2.35;;;;;;;;;;5093166;28;20545;-86
2022/04/07 09:52:09;;;;;;;11.02;1.85;;;9.70;99.90;;;;;;5079058;28;20395;-85
2022/04/07 09:55:04;;;;;;;9.05;2.70;;;9.70;99.90;;;;;;5093212;28;20104;-88
2022/04/07 09:57:48;;;;;;;12.05;1.90;;;;;;;;;;5094074;28;20400;-86
2022/04/07 10:00:33;;;;;;;7.13;1.83;;;;;;;;;;5078674;28;20067;-86
2022/04/07 10:03:19;;;;;;;14.07;2.00;;;;;;;;;;5093856;28;20101;-88
2022/04/07 10:06:05;;;;;;;10.73;2.38;;;9.70;99.90;;;;;;5093157;28;20043;-87
2022/04/07 10:08:50;;;;;;;12.73;2.22;;;;;;;;;;5093915;28;20062;-85
2022/04/07 10:11:35;;;;;;;10.90;2.22;;;;;;;;;;5092453;28;20043;-84
2022/04/07 10:14:23;;;;;;;12.30;2.53;;;;;;;;;;5091632;28;20043;-90
2022/04/07 10:17:10;;;;;;;10.35;1.98;;;9.90;99.90;;;;;;5078961;28;20043;-86
2022/04/07 10:20:01;;;;;;;8.75;1.98;;;10.30;99.90;;;;;;5092628;28;20089;-85
2022/04/07 10:23:01;;;;;;;13.80;2.58;;;10.60;99.90;;;;;;5093907;28;20383;-84
2022/04/07 10:25:50;;;;;;;13.07;2.40;;;10.90;99.90;;;;;;5093280;28;20038;-84
2022/04/07 10:28:35;;;;;;;10.23;2.10;;;;;;;;;;5095954;28;20153;-84
2022/04/07 10:31:19;;;;;;;12.25;2.72;;;;;;;;;;5092580;28;20158;-84
2022/04/07 10:34:07;;;;;;;6.68;2.00;;;10.30;99.90;;;;;;5092150;28;20158;-83
2022/04/07 10:37:07;;;;;;;13.20;2.80;;;9.80;99.90;;;;;;5078086;28;20047;-83
2022/04/07 10:39:52;;;;;;;12.68;2.95;;;;;;;;;;5078235;28;20101;-84
2022/04/07 10:43:10;;;;;;;10.85;2.55;;;9.40;99.90;;;;;;5091441;28;20058;-85
2022/04/07 10:46:16;;;;;;;11.65;2.53;;;9.80;99.90;;;;;;5092182;28;20039;-85
2022/04/07 10:49:06;;;;;;;14.88;2.95;;;10.20;99.90;;;;;;5092989;28;20039;-85
2022/04/07 10:51:51;;;;;;;14.60;3.08;;;;;;;;;;5092081;28;20039;-84
2022/04/07 10:55:13;;;;;;;14.50;2.88;;;10.50;99.90;;;;;;5092726;28;20062;-85
2022/04/07 10:58:12;;;;;;;10.45;2.65;;;10.10;99.90;;;;;;5092982;28;20050;-87
2022/04/07 11:00:57;;;;;;;12.43;2.50;;;;;;;;;;5092273;28;20145;-88
2022/04/07 11:04:22;;;;;;;10.95;2.10;;;9.50;99.90;;;;;;5091596;28;20494;-83
2022/04/07 11:07:07;;;;;;;15.75;2.65;;;;;;;;;;5091984;28;20089;-86
2022/04/07 11:09:58;;;;;;;8.77;2.28;;;9.20;99.90;;;;;;5092453;28;20097;-86
2022/04/07 11:12:44;;;;;;;8.30;2.15;;;8.90;99.90;;;;;;5091169;28;20062;-85
2022/04/07 11:15:33;;;;;;;11.40;2.95;;;8.70;99.90;;;;;;5090968;28;20034;-89
2022/04/07 11:18:36;;;;;;;12.77;2.53;;;8.40;99.90;;;;;;5091402;28;20039;-86
2022/04/07 11:21:20;;;;;;;8.80;2.42;;;;;;;;;;5091654;28;20388;-86
2022/04/07 11:24:07;;;;;;;9.23;2.30;;;8.50;99.90;;;;;;5091508;28;20039;-87
2022/04/07 11:26:54;;;;;;;10.68;2.20;;;8.80;99.90;;;;;;5094959;28;20034;-86
2022/04/07 11:29:39;;;;;;;16.55;2.42;;;;;;;;;;5067073;28;20094;-87
2022/04/07 11:32:24;;;;;;;14.05;2.55;;;;;;;;;;5096984;28;20491;-86
2022/04/07 11:35:15;;;;;;;17.85;3.60;;;9.40;99.90;;;;;;5095756;28;20044;-87
2022/04/07 11:38:02;;;;;;;15.05;3.03;;;9.50;99.90;;;;;;5095676;28;20541;-87
2022/04/07 11:41:01;;;;;;;14.48;3.00;;;9.70;99.90;;;;;;5095370;28;20035;-86
2022/04/07 11:43:49;;;;;;;16.17;3.30;;;9.90;99.90;;;;;;5096312;28;20108;-86
2022/04/07 11:46:34;;;;;;;9.68;2.58;;;;;;;;;;5096031;28;20031;-84
2022/04/07 11:49:18;;;;;;;18.33;2.92;;;;;;;;;;5081128;28;20533;-85
2022/04/07 11:52:03;;;;;;;11.85;3.70;;;;;;;;;;5095245;28;20047;-87
2022/04/07 11:54:48;;;;;;;15.63;3.50;;;;;;;;;;5094978;28;20039;-85
2022/04/07 11:57:34;;;;;;;14.27;2.85;;;9.90;99.90;;;;;;5094942;28;20428;-87
2022/04/07 12:00:19;;;;;;;16.42;2.97;;;9.90;99.90;;;;;;5097644;28;20059;-85
2022/04/07 12:03:05;;;;;;;13.98;2.97;;;9.90;99.90;;;;;;5094872;28;20043;-85
2022/04/07 12:05:50;;;;;;;13.25;2.80;;;;;;;;;;5080336;28;20070;-85
2022/04/07 12:08:35;;;;;;;12.77;3.00;;;;;;;;;;5082340;28;20123;-87
2022/04/07 12:11:24;;;;;;;14.18;3.72;;;10.30;99.90;;;;;;5099874;28;20058;-85
2022/04/07 12:14:10;;;;;;;15.23;3.38;;;10.50;99.90;;;;;;5094958;28;20483;-85
2022/04/07 12:16:54;;;;;;;12.02;3.13;;;;;;;;;;5094346;28;20492;-85
2022/04/07 12:19:46;;;;;;;15.65;2.83;;;10.40;99.90;;;;;;5094530;28;20046;-85
2022/04/07 12:22:31;;;;;;;12.15;3.17;;;10.30;99.90;;;;;;5094949;28;20582;-85
2022/04/07 12:25:24;;;;;;;15.15;3.50;;;10.20;99.90;;;;;;5094500;28;20051;-84
2022/04/07 12:28:13;;;;;;;12.68;2.25;;;10.20;99.90;;;;;;5094647;28;20077;-85
2022/04/07 12:30:57;;;;;;;12.43;3.33;;;;;;;;;;5094146;28;20600;-85
2022/04/07 12:33:44;;;;;;;10.75;2.67;;;10.40;99.90;;;;;;5094210;28;20038;-84
2022/04/07 12:36:35;;;;;;;13.48;2.88;;;;;;;;;;5094725;28;20178;-85
2022/04/07 12:39:22;;;;;;;13.90;2.25;;;;;;;;;;5093805;28;20092;-83
2022/04/07 12:42:13;;;;;;;18.20;3.38;;;10.30;99.90;;;;;;5092142;28;20039;-85
2022/04/07 12:45:08;;;;;;;6.20;1.80;;;9.70;99.90;;;;;;5079176;28;20043;-85
2022/04/07 12:48:06;;;;;;;8.20;1.50;;;8.80;99.90;;;;;;5078760;28;20046;-83
2022/04/07 12:50:51;;;;;;;4.90;1.35;;;;;;;;;;5093793;28;20488;-84
2022/04/07 12:53:36;;;;;;;8.18;2.47;;;;;;;;;;5092770;28;20105;-84
2022/04/07 12:56:25;;;;;;;5.90;1.85;;;7.50;99.90;;;;;;5078911;28;20498;-83
2022/04/07 12:59:10;;;;;;;8.27;1.75;;;;;;;;;;5079324;28;20098;-83
2022/04/07 13:01:54;;;;;;;9.27;1.90;;;6.70;99.90;;;;;;5093708;28;20490;-83
2022/04/07 13:04:49;;;;;;;8.48;1.98;;;6.60;99.90;;;;;;5093000;28;20074;-83
2022/04/07 13:07:34;;;;;;;7.38;1.65;;;;;;;;;;5093028;28;20137;-85
2022/04/07 13:10:18;;;;;;;2.35;1.20;;;;;;;;;;5092831;28;20047;-84
2022/04/07 13:13:03;;;;;;;4.90;1.70;;;;;;;;;;5092247;28;20057;-83
2022/04/07 13:15:47;;;;;;;5.30;1.83;;;;;;;;;;5093460;28;20035;-85
2022/04/07 13:18:32;;;;;;;4.18;1.40;;;;;;;;;;5092743;28;20105;-83
2022/04/07 13:21:16;;;;;;;9.35;2.38;;;;;;;;;;5093767;28;20451;-84
2022/04/07 13:24:01;;;;;;;9.35;1.67;;;;;;;;;;5093491;28;20039;-85
2022/04/07 13:26:47;;;;;;;9.32;1.83;;;;;;;;;;5093464;28;20120;-87
2022/04/07 13:29:32;;;;;;;6.57;2.03;;;;;;;;;;5078621;28;20142;-84
2022/04/07 13:32:16;;;;;;;9.48;1.80;;;;;;;;;;5092694;28;20138;-83
2022/04/07 13:35:01;;;;;;;10.75;2.20;;;;;;;;;;5093071;28;20086;-83
2022/04/07 13:37:45;;;;;;;12.60;4.30;;;;;;;;;;5092358;28;20495;-87
2022/04/07 13:40:30;;;;;;;12.57;3.10;;;;;;;;;;5093278;28;20043;-84
2022/04/07 13:43:14;;;;;;;16.05;3.03;;;;;;;;;;5078036;28;20439;-84
2022/04/07 13:45:59;;;;;;;14.40;2.00;;;;;;;;;;5092269;28;20042;-84
2022/04/07 13:48:44;;;;;;;8.13;2.20;;;;;;;;;;5092394;28;20491;-85
2022/04/07 13:51:29;;;;;;;10.70;2.83;;;;;;;;;;5092874;28;20038;-84
2022/04/07 13:54:13;;;;;;;5.43;1.90;;;;;;;;;;5092918;28;20039;-84
2022/04/07 13:56:59;;;;;;;4.40;1.30;;;8.40;99.90;;;;;;5092619;28;20533;-87
2022/04/07 13:59:44;;;;;;;5.78;1.30;;;;;;;;;;5092209;28;20063;-85
2022/04/07 14:02:29;;;;;;;4.18;1.20;;;;;;;;;;5092142;28;20077;-85
2022/04/07 14:05:14;;;;;;;5.03;1.30;;;;;;;;;;5093025;28;20388;-85
2022/04/07 14:07:59;;;;;;;8.50;2.50;;;;;;;;;;5092609;28;20042;-84
2022/04/07 14:10:43;;;;;;;3.78;1.35;;;;;;;;;;5091955;28;20236;-85
2022/04/07 14:13:28;;;;;;;6.20;1.50;;;;;;;;;;5093178;28;20066;-83
2022/04/07 14:16:12;;;;;;;6.70;1.85;;;;;;;;;;5091934;28;20043;-82
2022/04/07 14:18:57;;;;;;;4.65;1.67;;;;;;;;;;5091960;28;20069;-82
2022/04/07 14:21:41;;;;;;;5.70;1.60;;;;;;;;;;5093521;28;20124;-82
2022/04/07 14:24:26;;;;;;;11.02;1.95;;;;;;;;;;5092973;28;20047;-83
2022/04/07 14:27:11;;;;;;;7.50;1.98;;;;;;;;;;5077898;28;20043;-83
2022/04/07 14:29:55;;;;;;;3.33;1.90;;;;;;;;;;5077741;28;20050;-84
2022/04/07 14:32:44;;;;;;;7.53;2.30;;;;;;;;;;5093427;28;20074;-83
2022/04/07 14:35:33;;;;;;;10.52;2.10;;;;;;;;;;5093582;28;20035;-83
2022/04/07 14:38:18;;;;;;;6.88;1.58;;;;;;;;;;5092000;28;20487;-84
2022/04/07 14:41:02;;;;;;;12.25;2.58;;;;;;;;;;5092763;28;20058;-83
2022/04/07 14:43:47;;;;;;;8.98;2.42;;;;;;;;;;5092266;28;20069;-82
2022/04/07 14:46:32;;;;;;;9.20;1.88;;;;;;;;;;5092441;28;20074;-82
2022/04/07 14:49:17;;;;;;;11.32;3.42;;;;;;;;;;5091717;28;20039;-83
2022/04/07 14:52:02;;;;;;;14.40;2.42;;;;;;;;;;5077860;28;20038;-83
2022/04/07 14:54:47;;;;;;;9.10;2.00;;;;;;;;;;5091995;28;20089;-84
2022/04/07 14:57:32;;;;;;;13.70;2.55;;;;;;;;;;5092028;28;20039;-83
2022/04/07 15:00:16;;;;;;;11.98;2.92;;;7.90;99.90;;;;;;5076554;28;20100;-85
2022/04/07 15:03:01;;;;;;;13.15;2.80;;;;;;;;;;5091624;28;20044;-85
2022/04/07 15:05:47;;;;;;;9.30;2.17;;;;;;;;;;5091930;28;20537;-83
2022/04/07 15:08:32;;;;;;;14.05;3.20;;;;;;;;;;5077755;28;20086;-83
2022/04/07 15:11:17;;;;;;;10.68;2.42;;;;;;;;;;5092450;28;20486;-85
2022/04/07 15:14:01;;;;;;;11.50;4.80;;;;;;;;;;5091617;28;20522;-87
2022/04/07 15:16:46;;;;;;;12.75;2.58;;;;;;;;;;5077984;28;20491;-84
2022/04/07 15:19:31;;;;;;;13.38;2.85;;;;;;;;;;5091724;28;20078;-84
2022/04/07 15:22:16;;;;;;;13.27;2.10;;;;;;;;;;5092542;28;20043;-84
2022/04/07 15:25:00;;;;;;;3.88;1.63;;;;;;;;;;5091678;28;20085;-86
2022/04/07 15:27:45;;;;;;;5.80;1.30;;;;;;;;;;5091824;28;20054;-83
2022/04/07 15:30:29;;;;;;;8.25;1.48;;;;;;;;;;5091838;28;20039;-83
2022/04/07 15:33:14;;;;;;;9.57;2.60;;;;;;;;;;5091398;28;20072;-84
2022/04/07 15:35:58;;;;;;;15.73;3.15;;;;;;;;;;5091849;28;20438;-84
2022/04/07 15:38:43;;;;;;;13.10;2.45;;;;;;;;;;5091640;28;20181;-85
2022/04/07 15:41:27;;;;;;;16.08;3.00;;;7.90;99.90;;;;;;5091440;28;20039;-84
2022/04/07 15:44:11;;;;;;;;;;;8.00;99.90;;;;;;5092834;28;20097;-84
2022/04/07 15:46:56;;;;;;;11.15;2.55;;;;;;;;;;5092647;28;20313;-85
2022/04/07 15:49:41;;;;;;;10.88;2.42;;;;;;;;;;5091430;28;20101;-85
2022/04/07 15:52:25;;;;;;;8.60;2.90;;;;;;;;;;5091102;28;20043;-84
2022/04/07 15:55:10;;;;;;;12.93;2.25;;;;;;;;;;5092088;28;20039;-84
2022/04/07 15:57:54;;;;;;;11.77;2.60;;;;;;;;;;5077032;28;20054;-83